sensor_id;sensor_type;location;lat;lon;timestamp;P1;durP1;ratioP1;P2;durP2;ratioP2
4500;SDS011;2263;54.654;9.410;2023-05-02T00:00:01;11.70;;;4.67;;
4500;SDS011;2263;54.654;9.410;2023-05-02T00:02:29;7.77;;;4.00;;
4500;SDS011;2263;54.654;9.410;2023-05-02T00:04:57;7.77;;;4.80;;
4500;SDS011;2263;54.654;9.410;2023-05-02T00:07:25;7.50;;;3.73;;
4500;SDS011;2263;54.654;9.410;2023-05-02T00:09:52;6.40;;;4.60;;
4500;SDS011;2263;54.654;9.410;2023-05-02T00:12:20;7.63;;;4.57;;
4500;SDS011;2263;54.654;9.410;2023-05-02T00:14:48;8.33;;;5.43;;
4500;SDS011;2263;54.654;9.410;2023-05-02T00:17:16;10.93;;;4.30;;
4500;SDS011;2263;54.654;9.410;2023-05-02T00:19:45;8.80;;;3.80;;
4500;SDS011;2263;54.654;9.410;2023-05-02T00:22:13;7.27;;;4.07;;
4500;SDS011;2263;54.654;9.410;2023-05-02T00:24:41;7.30;;;3.80;;
4500;SDS011;2263;54.654;9.410;2023-05-02T00:27:08;7.07;;;3.17;;
4500;SDS011;2263;54.654;9.410;2023-05-02T00:29:36;12.23;;;4.43;;
4500;SDS011;2263;54.654;9.410;2023-05-02T00:32:04;24.47;;;5.70;;
4500;SDS011;2263;54.654;9.410;2023-05-02T00:34:32;16.37;;;5.40;;
4500;SDS011;2263;54.654;9.410;2023-05-02T00:36:59;15.17;;;5.07;;
4500;SDS011;2263;54.654;9.410;2023-05-02T00:39:27;13.50;;;4.57;;
4500;SDS011;2263;54.654;9.410;2023-05-02T00:41:55;10.37;;;4.27;;
4500;SDS011;2263;54.654;9.410;2023-05-02T00:44:26;13.90;;;5.57;;
4500;SDS011;2263;54.654;9.410;2023-05-02T00:46:54;12.07;;;5.30;;
4500;SDS011;2263;54.654;9.410;2023-05-02T00:49:22;13.33;;;4.43;;
4500;SDS011;2263;54.654;9.410;2023-05-02T00:51:50;10.70;;;5.27;;
4500;SDS011;2263;54.654;9.410;2023-05-02T00:54:19;15.50;;;4.30;;
4500;SDS011;2263;54.654;9.410;2023-05-02T00:56:46;21.80;;;5.73;;
4500;SDS011;2263;54.654;9.410;2023-05-02T00:59:15;11.93;;;4.40;;
4500;SDS011;2263;54.654;9.410;2023-05-02T01:14:54;12.07;;;4.83;;
4500;SDS011;2263;54.654;9.410;2023-05-02T01:17:26;13.23;;;5.17;;
4500;SDS011;2263;54.654;9.410;2023-05-02T01:19:57;16.80;;;5.83;;
4500;SDS011;2263;54.654;9.410;2023-05-02T01:22:27;11.87;;;4.50;;
4500;SDS011;2263;54.654;9.410;2023-05-02T01:25:00;17.47;;;5.50;;
4500;SDS011;2263;54.654;9.410;2023-05-02T01:27:47;12.97;;;5.53;;
4500;SDS011;2263;54.654;9.410;2023-05-02T01:30:24;12.40;;;4.23;;
4500;SDS011;2263;54.654;9.410;2023-05-02T01:32:56;16.60;;;5.37;;
4500;SDS011;2263;54.654;9.410;2023-05-02T01:35:27;12.13;;;5.23;;
4500;SDS011;2263;54.654;9.410;2023-05-02T01:37:56;20.67;;;4.80;;
4500;SDS011;2263;54.654;9.410;2023-05-02T01:40:26;13.90;;;4.80;;
4500;SDS011;2263;54.654;9.410;2023-05-02T01:42:55;10.37;;;4.70;;
4500;SDS011;2263;54.654;9.410;2023-05-02T01:45:24;13.43;;;4.83;;
4500;SDS011;2263;54.654;9.410;2023-05-02T01:47:53;17.43;;;5.77;;
4500;SDS011;2263;54.654;9.410;2023-05-02T01:50:22;15.13;;;4.53;;
4500;SDS011;2263;54.654;9.410;2023-05-02T01:52:51;12.40;;;4.50;;
4500;SDS011;2263;54.654;9.410;2023-05-02T01:55:20;18.10;;;5.10;;
4500;SDS011;2263;54.654;9.410;2023-05-02T01:57:50;19.63;;;5.87;;
4500;SDS011;2263;54.654;9.410;2023-05-02T02:00:20;9.47;;;5.37;;
4500;SDS011;2263;54.654;9.410;2023-05-02T02:02:49;16.73;;;4.33;;
4500;SDS011;2263;54.654;9.410;2023-05-02T02:05:19;15.93;;;5.67;;
4500;SDS011;2263;54.654;9.410;2023-05-02T02:07:48;16.63;;;5.00;;
4500;SDS011;2263;54.654;9.410;2023-05-02T02:10:15;17.00;;;4.40;;
4500;SDS011;2263;54.654;9.410;2023-05-02T02:12:51;24.73;;;5.53;;
4500;SDS011;2263;54.654;9.410;2023-05-02T02:15:20;10.50;;;5.80;;
4500;SDS011;2263;54.654;9.410;2023-05-02T02:17:56;12.77;;;4.50;;
4500;SDS011;2263;54.654;9.410;2023-05-02T02:20:27;16.70;;;3.90;;
4500;SDS011;2263;54.654;9.410;2023-05-02T02:22:56;19.10;;;6.47;;
4500;SDS011;2263;54.654;9.410;2023-05-02T02:25:26;15.70;;;6.00;;
4500;SDS011;2263;54.654;9.410;2023-05-02T02:27:54;10.20;;;3.73;;
4500;SDS011;2263;54.654;9.410;2023-05-02T02:30:23;17.27;;;6.53;;
4500;SDS011;2263;54.654;9.410;2023-05-02T02:32:50;8.10;;;3.30;;
4500;SDS011;2263;54.654;9.410;2023-05-02T02:35:18;9.73;;;3.93;;
4500;SDS011;2263;54.654;9.410;2023-05-02T02:37:48;8.87;;;3.90;;
4500;SDS011;2263;54.654;9.410;2023-05-02T02:40:22;20.60;;;4.63;;
4500;SDS011;2263;54.654;9.410;2023-05-02T02:43:02;8.00;;;3.90;;
4500;SDS011;2263;54.654;9.410;2023-05-02T02:51:25;4.80;;;3.80;;
4500;SDS011;2263;54.654;9.410;2023-05-02T02:56:54;11.50;;;3.63;;
4500;SDS011;2263;54.654;9.410;2023-05-02T02:59:28;13.60;;;4.60;;
4500;SDS011;2263;54.654;9.410;2023-05-02T03:02:06;10.97;;;3.83;;
4500;SDS011;2263;54.654;9.410;2023-05-02T03:04:39;17.83;;;3.63;;
4500;SDS011;2263;54.654;9.410;2023-05-02T03:07:09;11.77;;;5.40;;
4500;SDS011;2263;54.654;9.410;2023-05-02T03:09:40;11.73;;;3.40;;
4500;SDS011;2263;54.654;9.410;2023-05-02T03:12:09;9.87;;;4.20;;
4500;SDS011;2263;54.654;9.410;2023-05-02T03:14:37;7.87;;;3.20;;
4500;SDS011;2263;54.654;9.410;2023-05-02T03:17:05;6.20;;;3.33;;
4500;SDS011;2263;54.654;9.410;2023-05-02T03:19:36;11.40;;;3.33;;
4500;SDS011;2263;54.654;9.410;2023-05-02T03:22:04;14.90;;;3.10;;
4500;SDS011;2263;54.654;9.410;2023-05-02T03:24:31;12.87;;;5.20;;
4500;SDS011;2263;54.654;9.410;2023-05-02T03:26:59;8.50;;;3.77;;
4500;SDS011;2263;54.654;9.410;2023-05-02T03:29:26;9.30;;;3.33;;
4500;SDS011;2263;54.654;9.410;2023-05-02T03:31:54;13.00;;;4.37;;
4500;SDS011;2263;54.654;9.410;2023-05-02T03:34:22;8.83;;;3.27;;
4500;SDS011;2263;54.654;9.410;2023-05-02T03:36:49;5.50;;;3.40;;
4500;SDS011;2263;54.654;9.410;2023-05-02T03:39:17;11.47;;;4.40;;
4500;SDS011;2263;54.654;9.410;2023-05-02T03:41:44;8.77;;;3.60;;
4500;SDS011;2263;54.654;9.410;2023-05-02T03:44:12;6.80;;;3.57;;
4500;SDS011;2263;54.654;9.410;2023-05-02T03:46:40;6.77;;;3.33;;
4500;SDS011;2263;54.654;9.410;2023-05-02T03:49:07;6.90;;;3.00;;
4500;SDS011;2263;54.654;9.410;2023-05-02T03:51:35;11.10;;;3.70;;
4500;SDS011;2263;54.654;9.410;2023-05-02T03:54:02;14.80;;;3.93;;
4500;SDS011;2263;54.654;9.410;2023-05-02T03:56:30;5.57;;;3.33;;
4500;SDS011;2263;54.654;9.410;2023-05-02T03:58:58;10.17;;;4.90;;
4500;SDS011;2263;54.654;9.410;2023-05-02T04:01:25;9.20;;;3.60;;
4500;SDS011;2263;54.654;9.410;2023-05-02T04:03:53;4.77;;;2.97;;
4500;SDS011;2263;54.654;9.410;2023-05-02T04:06:21;7.17;;;3.03;;
4500;SDS011;2263;54.654;9.410;2023-05-02T04:08:48;8.17;;;3.63;;
4500;SDS011;2263;54.654;9.410;2023-05-02T04:11:16;5.40;;;3.17;;
4500;SDS011;2263;54.654;9.410;2023-05-02T04:13:43;11.33;;;3.30;;
4500;SDS011;2263;54.654;9.410;2023-05-02T04:16:11;7.83;;;3.27;;
4500;SDS011;2263;54.654;9.410;2023-05-02T04:18:38;9.60;;;3.63;;
4500;SDS011;2263;54.654;9.410;2023-05-02T04:21:06;5.40;;;3.07;;
4500;SDS011;2263;54.654;9.410;2023-05-02T04:23:36;9.00;;;3.17;;
4500;SDS011;2263;54.654;9.410;2023-05-02T04:26:03;3.20;;;2.20;;
4500;SDS011;2263;54.654;9.410;2023-05-02T04:28:31;14.67;;;3.80;;
4500;SDS011;2263;54.654;9.410;2023-05-02T04:31:00;5.63;;;2.93;;
4500;SDS011;2263;54.654;9.410;2023-05-02T04:33:29;5.87;;;2.43;;
4500;SDS011;2263;54.654;9.410;2023-05-02T04:35:57;5.97;;;2.50;;
4500;SDS011;2263;54.654;9.410;2023-05-02T04:38:24;3.50;;;2.33;;
4500;SDS011;2263;54.654;9.410;2023-05-02T04:40:53;4.07;;;2.93;;
4500;SDS011;2263;54.654;9.410;2023-05-02T04:43:20;6.63;;;4.00;;
4500;SDS011;2263;54.654;9.410;2023-05-02T04:45:50;7.03;;;4.13;;
4500;SDS011;2263;54.654;9.410;2023-05-02T04:48:18;5.53;;;3.23;;
4500;SDS011;2263;54.654;9.410;2023-05-02T04:50:45;9.07;;;3.10;;
4500;SDS011;2263;54.654;9.410;2023-05-02T04:53:13;4.40;;;3.40;;
4500;SDS011;2263;54.654;9.410;2023-05-02T04:55:41;9.33;;;3.30;;
4500;SDS011;2263;54.654;9.410;2023-05-02T04:58:08;9.77;;;3.37;;
4500;SDS011;2263;54.654;9.410;2023-05-02T05:00:36;10.70;;;2.60;;
4500;SDS011;2263;54.654;9.410;2023-05-02T05:03:04;5.00;;;2.90;;
4500;SDS011;2263;54.654;9.410;2023-05-02T05:05:35;4.53;;;2.30;;
4500;SDS011;2263;54.654;9.410;2023-05-02T05:08:02;11.00;;;2.47;;
4500;SDS011;2263;54.654;9.410;2023-05-02T05:10:30;8.07;;;2.13;;
4500;SDS011;2263;54.654;9.410;2023-05-02T05:12:57;5.17;;;2.50;;
4500;SDS011;2263;54.654;9.410;2023-05-02T05:15:25;9.43;;;4.50;;
4500;SDS011;2263;54.654;9.410;2023-05-02T05:17:53;6.20;;;2.90;;
4500;SDS011;2263;54.654;9.410;2023-05-02T05:20:20;6.17;;;2.60;;
4500;SDS011;2263;54.654;9.410;2023-05-02T05:22:48;5.47;;;2.57;;
4500;SDS011;2263;54.654;9.410;2023-05-02T05:25:16;9.33;;;3.13;;
4500;SDS011;2263;54.654;9.410;2023-05-02T05:27:43;4.53;;;2.77;;
4500;SDS011;2263;54.654;9.410;2023-05-02T05:30:11;11.30;;;2.77;;
4500;SDS011;2263;54.654;9.410;2023-05-02T05:32:38;5.30;;;2.33;;
4500;SDS011;2263;54.654;9.410;2023-05-02T05:35:06;5.43;;;2.10;;
4500;SDS011;2263;54.654;9.410;2023-05-02T05:37:34;5.93;;;3.53;;
4500;SDS011;2263;54.654;9.410;2023-05-02T05:40:08;4.97;;;4.47;;
4500;SDS011;2263;54.654;9.410;2023-05-02T05:42:36;9.73;;;3.30;;
4500;SDS011;2263;54.654;9.410;2023-05-02T05:45:03;11.70;;;3.23;;
4500;SDS011;2263;54.654;9.410;2023-05-02T05:47:31;4.53;;;2.60;;
4500;SDS011;2263;54.654;9.410;2023-05-02T05:49:59;9.30;;;2.30;;
4500;SDS011;2263;54.654;9.410;2023-05-02T05:52:27;10.27;;;5.10;;
4500;SDS011;2263;54.654;9.410;2023-05-02T05:54:55;4.87;;;2.70;;
4500;SDS011;2263;54.654;9.410;2023-05-02T05:57:22;4.10;;;2.60;;
4500;SDS011;2263;54.654;9.410;2023-05-02T05:59:50;5.10;;;2.43;;
4500;SDS011;2263;54.654;9.410;2023-05-02T06:02:18;10.37;;;3.60;;
4500;SDS011;2263;54.654;9.410;2023-05-02T06:04:45;4.10;;;2.20;;
4500;SDS011;2263;54.654;9.410;2023-05-02T06:07:13;4.00;;;2.47;;
4500;SDS011;2263;54.654;9.410;2023-05-02T06:09:41;3.47;;;2.10;;
4500;SDS011;2263;54.654;9.410;2023-05-02T06:12:08;6.93;;;2.67;;
4500;SDS011;2263;54.654;9.410;2023-05-02T06:14:36;6.60;;;2.20;;
4500;SDS011;2263;54.654;9.410;2023-05-02T06:17:04;8.80;;;2.27;;
4500;SDS011;2263;54.654;9.410;2023-05-02T06:19:32;8.33;;;2.83;;
4500;SDS011;2263;54.654;9.410;2023-05-02T06:21:59;4.27;;;2.53;;
4500;SDS011;2263;54.654;9.410;2023-05-02T06:24:27;7.40;;;2.60;;
4500;SDS011;2263;54.654;9.410;2023-05-02T06:26:57;3.87;;;2.03;;
4500;SDS011;2263;54.654;9.410;2023-05-02T06:29:25;6.13;;;2.20;;
4500;SDS011;2263;54.654;9.410;2023-05-02T06:31:56;3.23;;;1.97;;
4500;SDS011;2263;54.654;9.410;2023-05-02T06:34:27;5.07;;;2.40;;
4500;SDS011;2263;54.654;9.410;2023-05-02T06:36:54;12.13;;;2.90;;
4500;SDS011;2263;54.654;9.410;2023-05-02T06:39:22;4.50;;;2.47;;
4500;SDS011;2263;54.654;9.410;2023-05-02T06:41:50;2.83;;;2.20;;
4500;SDS011;2263;54.654;9.410;2023-05-02T06:44:22;8.00;;;2.03;;
4500;SDS011;2263;54.654;9.410;2023-05-02T06:46:49;9.57;;;2.40;;
4500;SDS011;2263;54.654;9.410;2023-05-02T06:49:17;6.00;;;2.23;;
4500;SDS011;2263;54.654;9.410;2023-05-02T06:51:44;12.53;;;2.00;;
4500;SDS011;2263;54.654;9.410;2023-05-02T06:54:12;4.53;;;2.47;;
4500;SDS011;2263;54.654;9.410;2023-05-02T06:56:41;8.10;;;2.50;;
4500;SDS011;2263;54.654;9.410;2023-05-02T06:59:09;4.50;;;3.03;;
4500;SDS011;2263;54.654;9.410;2023-05-02T07:01:37;5.73;;;2.93;;
4500;SDS011;2263;54.654;9.410;2023-05-02T07:04:05;11.10;;;2.20;;
4500;SDS011;2263;54.654;9.410;2023-05-02T07:06:32;5.40;;;2.10;;
4500;SDS011;2263;54.654;9.410;2023-05-02T07:09:00;4.93;;;2.10;;
4500;SDS011;2263;54.654;9.410;2023-05-02T07:11:28;12.27;;;2.00;;
4500;SDS011;2263;54.654;9.410;2023-05-02T07:13:58;3.20;;;2.30;;
4500;SDS011;2263;54.654;9.410;2023-05-02T07:16:26;3.43;;;2.60;;
4500;SDS011;2263;54.654;9.410;2023-05-02T07:18:54;10.07;;;2.33;;
4500;SDS011;2263;54.654;9.410;2023-05-02T07:21:21;7.67;;;2.50;;
4500;SDS011;2263;54.654;9.410;2023-05-02T07:23:49;5.60;;;2.77;;
4500;SDS011;2263;54.654;9.410;2023-05-02T07:26:16;7.43;;;2.67;;
4500;SDS011;2263;54.654;9.410;2023-05-02T07:28:45;8.63;;;2.90;;
4500;SDS011;2263;54.654;9.410;2023-05-02T07:31:13;6.17;;;3.40;;
4500;SDS011;2263;54.654;9.410;2023-05-02T07:33:40;5.87;;;3.33;;
4500;SDS011;2263;54.654;9.410;2023-05-02T07:36:08;8.40;;;2.30;;
4500;SDS011;2263;54.654;9.410;2023-05-02T07:38:35;7.40;;;2.30;;
4500;SDS011;2263;54.654;9.410;2023-05-02T07:41:03;6.17;;;2.80;;
4500;SDS011;2263;54.654;9.410;2023-05-02T07:43:31;6.13;;;4.53;;
4500;SDS011;2263;54.654;9.410;2023-05-02T07:46:02;5.27;;;2.83;;
4500;SDS011;2263;54.654;9.410;2023-05-02T07:48:31;6.83;;;2.90;;
4500;SDS011;2263;54.654;9.410;2023-05-02T07:51:05;4.37;;;2.53;;
4500;SDS011;2263;54.654;9.410;2023-05-02T07:53:34;4.60;;;2.40;;
4500;SDS011;2263;54.654;9.410;2023-05-02T07:56:05;4.87;;;2.43;;
4500;SDS011;2263;54.654;9.410;2023-05-02T07:58:34;2.50;;;2.30;;
4500;SDS011;2263;54.654;9.410;2023-05-02T08:01:04;5.03;;;3.03;;
4500;SDS011;2263;54.654;9.410;2023-05-02T08:03:32;5.33;;;2.17;;
4500;SDS011;2263;54.654;9.410;2023-05-02T08:06:00;2.50;;;2.30;;
4500;SDS011;2263;54.654;9.410;2023-05-02T08:08:28;3.93;;;2.63;;
4500;SDS011;2263;54.654;9.410;2023-05-02T08:10:55;6.43;;;2.50;;
4500;SDS011;2263;54.654;9.410;2023-05-02T08:13:23;8.70;;;3.13;;
4500;SDS011;2263;54.654;9.410;2023-05-02T08:15:50;6.40;;;3.03;;
4500;SDS011;2263;54.654;9.410;2023-05-02T08:18:25;5.37;;;2.23;;
4500;SDS011;2263;54.654;9.410;2023-05-02T08:20:54;9.60;;;2.80;;
4500;SDS011;2263;54.654;9.410;2023-05-02T08:23:24;8.27;;;3.57;;
4500;SDS011;2263;54.654;9.410;2023-05-02T08:25:52;4.30;;;3.03;;
4500;SDS011;2263;54.654;9.410;2023-05-02T08:28:20;12.00;;;3.67;;
4500;SDS011;2263;54.654;9.410;2023-05-02T08:30:47;7.60;;;2.60;;
4500;SDS011;2263;54.654;9.410;2023-05-02T08:33:15;8.30;;;3.90;;
4500;SDS011;2263;54.654;9.410;2023-05-02T08:35:42;8.03;;;3.30;;
4500;SDS011;2263;54.654;9.410;2023-05-02T08:38:10;7.53;;;2.53;;
4500;SDS011;2263;54.654;9.410;2023-05-02T08:40:38;6.30;;;2.83;;
4500;SDS011;2263;54.654;9.410;2023-05-02T08:43:09;11.40;;;2.53;;
4500;SDS011;2263;54.654;9.410;2023-05-02T08:45:41;5.97;;;2.10;;
4500;SDS011;2263;54.654;9.410;2023-05-02T08:48:11;3.30;;;2.40;;
4500;SDS011;2263;54.654;9.410;2023-05-02T08:50:43;3.13;;;2.17;;
4500;SDS011;2263;54.654;9.410;2023-05-02T08:53:14;5.73;;;3.30;;
4500;SDS011;2263;54.654;9.410;2023-05-02T08:55:43;6.17;;;2.43;;
4500;SDS011;2263;54.654;9.410;2023-05-02T08:58:12;5.87;;;2.90;;
4500;SDS011;2263;54.654;9.410;2023-05-02T09:00:42;6.53;;;4.10;;
4500;SDS011;2263;54.654;9.410;2023-05-02T09:03:31;13.20;;;3.83;;
4500;SDS011;2263;54.654;9.410;2023-05-02T09:06:03;5.10;;;2.73;;
4500;SDS011;2263;54.654;9.410;2023-05-02T09:08:39;3.30;;;2.93;;
4500;SDS011;2263;54.654;9.410;2023-05-02T09:11:08;4.43;;;3.30;;
4500;SDS011;2263;54.654;9.410;2023-05-02T09:13:38;6.10;;;2.90;;
4500;SDS011;2263;54.654;9.410;2023-05-02T09:16:16;4.83;;;2.90;;
4500;SDS011;2263;54.654;9.410;2023-05-02T09:18:50;4.40;;;2.30;;
4500;SDS011;2263;54.654;9.410;2023-05-02T09:21:20;4.23;;;2.40;;
4500;SDS011;2263;54.654;9.410;2023-05-02T09:23:53;15.20;;;3.20;;
4500;SDS011;2263;54.654;9.410;2023-05-02T09:28:55;5.37;;;2.20;;
4500;SDS011;2263;54.654;9.410;2023-05-02T09:31:27;3.47;;;2.23;;
4500;SDS011;2263;54.654;9.410;2023-05-02T09:36:45;11.57;;;4.03;;
4500;SDS011;2263;54.654;9.410;2023-05-02T09:39:17;7.20;;;2.87;;
4500;SDS011;2263;54.654;9.410;2023-05-02T09:41:52;3.20;;;2.80;;
4500;SDS011;2263;54.654;9.410;2023-05-02T09:44:21;9.70;;;3.07;;
4500;SDS011;2263;54.654;9.410;2023-05-02T09:46:53;2.97;;;2.73;;
4500;SDS011;2263;54.654;9.410;2023-05-02T09:49:44;7.30;;;2.77;;
4500;SDS011;2263;54.654;9.410;2023-05-02T09:52:13;4.13;;;2.20;;
4500;SDS011;2263;54.654;9.410;2023-05-02T09:54:42;5.63;;;2.50;;
4500;SDS011;2263;54.654;9.410;2023-05-02T09:57:31;4.23;;;2.90;;
4500;SDS011;2263;54.654;9.410;2023-05-02T10:00:07;6.23;;;3.00;;
4500;SDS011;2263;54.654;9.410;2023-05-02T10:02:35;7.37;;;2.50;;
4500;SDS011;2263;54.654;9.410;2023-05-02T10:05:04;7.37;;;3.77;;
4500;SDS011;2263;54.654;9.410;2023-05-02T10:07:36;6.43;;;3.23;;
4500;SDS011;2263;54.654;9.410;2023-05-02T10:10:05;7.93;;;3.63;;
4500;SDS011;2263;54.654;9.410;2023-05-02T10:12:34;5.80;;;3.80;;
4500;SDS011;2263;54.654;9.410;2023-05-02T10:15:04;4.67;;;2.43;;
4500;SDS011;2263;54.654;9.410;2023-05-02T10:17:39;5.50;;;3.77;;
4500;SDS011;2263;54.654;9.410;2023-05-02T10:20:17;4.20;;;3.20;;
4500;SDS011;2263;54.654;9.410;2023-05-02T10:22:54;3.90;;;2.83;;
4500;SDS011;2263;54.654;9.410;2023-05-02T10:25:25;5.93;;;2.80;;
4500;SDS011;2263;54.654;9.410;2023-05-02T10:27:53;9.07;;;3.83;;
4500;SDS011;2263;54.654;9.410;2023-05-02T10:30:24;4.47;;;2.50;;
4500;SDS011;2263;54.654;9.410;2023-05-02T10:32:53;5.10;;;3.00;;
4500;SDS011;2263;54.654;9.410;2023-05-02T10:35:25;7.03;;;2.97;;
4500;SDS011;2263;54.654;9.410;2023-05-02T10:37:53;6.37;;;3.03;;
4500;SDS011;2263;54.654;9.410;2023-05-02T10:40:21;4.70;;;2.37;;
4500;SDS011;2263;54.654;9.410;2023-05-02T10:42:49;6.93;;;3.40;;
4500;SDS011;2263;54.654;9.410;2023-05-02T10:45:32;8.00;;;2.90;;
4500;SDS011;2263;54.654;9.410;2023-05-02T10:50:57;10.40;;;7.33;;
4500;SDS011;2263;54.654;9.410;2023-05-02T10:53:33;11.43;;;10.30;;
4500;SDS011;2263;54.654;9.410;2023-05-02T10:56:20;13.80;;;9.20;;
4500;SDS011;2263;54.654;9.410;2023-05-02T10:58:48;10.87;;;9.20;;
4500;SDS011;2263;54.654;9.410;2023-05-02T11:11:51;10.93;;;6.40;;
4500;SDS011;2263;54.654;9.410;2023-05-02T11:24:45;7.20;;;4.93;;
4500;SDS011;2263;54.654;9.410;2023-05-02T11:29:58;6.43;;;3.70;;
4500;SDS011;2263;54.654;9.410;2023-05-02T11:33:12;3.67;;;3.30;;
4500;SDS011;2263;54.654;9.410;2023-05-02T11:35:22;7.20;;;3.93;;
4500;SDS011;2263;54.654;9.410;2023-05-02T11:37:57;6.30;;;3.20;;
4500;SDS011;2263;54.654;9.410;2023-05-02T11:40:27;4.93;;;3.70;;
4500;SDS011;2263;54.654;9.410;2023-05-02T11:42:56;4.07;;;3.13;;
4500;SDS011;2263;54.654;9.410;2023-05-02T11:45:31;3.27;;;3.07;;
4500;SDS011;2263;54.654;9.410;2023-05-02T11:48:05;5.43;;;3.40;;
4500;SDS011;2263;54.654;9.410;2023-05-02T11:50:40;4.23;;;2.40;;
4500;SDS011;2263;54.654;9.410;2023-05-02T11:53:19;4.97;;;2.87;;
4500;SDS011;2263;54.654;9.410;2023-05-02T11:58:20;5.33;;;3.00;;
4500;SDS011;2263;54.654;9.410;2023-05-02T12:00:49;3.40;;;2.37;;
4500;SDS011;2263;54.654;9.410;2023-05-02T12:03:26;4.83;;;4.43;;
4500;SDS011;2263;54.654;9.410;2023-05-02T12:06:11;3.80;;;2.90;;
4500;SDS011;2263;54.654;9.410;2023-05-02T12:08:41;4.47;;;2.03;;
4500;SDS011;2263;54.654;9.410;2023-05-02T12:11:13;3.57;;;2.17;;
4500;SDS011;2263;54.654;9.410;2023-05-02T12:13:46;3.93;;;2.23;;
4500;SDS011;2263;54.654;9.410;2023-05-02T12:16:16;4.77;;;2.80;;
4500;SDS011;2263;54.654;9.410;2023-05-02T12:18:45;4.57;;;3.27;;
4500;SDS011;2263;54.654;9.410;2023-05-02T12:21:14;9.13;;;3.00;;
4500;SDS011;2263;54.654;9.410;2023-05-02T12:23:42;13.67;;;3.67;;
4500;SDS011;2263;54.654;9.410;2023-05-02T12:28:47;4.63;;;3.33;;
4500;SDS011;2263;54.654;9.410;2023-05-02T12:31:20;4.73;;;3.00;;
4500;SDS011;2263;54.654;9.410;2023-05-02T12:33:49;6.43;;;2.97;;
4500;SDS011;2263;54.654;9.410;2023-05-02T12:36:18;7.03;;;2.53;;
4500;SDS011;2263;54.654;9.410;2023-05-02T12:38:52;5.13;;;3.00;;
4500;SDS011;2263;54.654;9.410;2023-05-02T12:41:29;4.57;;;2.80;;
4500;SDS011;2263;54.654;9.410;2023-05-02T12:43:57;5.33;;;2.07;;
4500;SDS011;2263;54.654;9.410;2023-05-02T12:46:26;4.10;;;2.23;;
4500;SDS011;2263;54.654;9.410;2023-05-02T12:49:27;4.10;;;2.20;;
4500;SDS011;2263;54.654;9.410;2023-05-02T12:51:52;7.00;;;2.20;;
4500;SDS011;2263;54.654;9.410;2023-05-02T12:54:21;5.30;;;3.80;;
4500;SDS011;2263;54.654;9.410;2023-05-02T12:56:50;3.33;;;2.10;;
4500;SDS011;2263;54.654;9.410;2023-05-02T12:59:27;3.00;;;2.20;;
4500;SDS011;2263;54.654;9.410;2023-05-02T13:01:56;2.97;;;1.83;;
4500;SDS011;2263;54.654;9.410;2023-05-02T13:04:34;2.73;;;1.93;;
4500;SDS011;2263;54.654;9.410;2023-05-02T13:07:02;4.33;;;2.50;;
4500;SDS011;2263;54.654;9.410;2023-05-02T13:09:30;4.40;;;2.20;;
4500;SDS011;2263;54.654;9.410;2023-05-02T13:11:58;4.03;;;2.30;;
4500;SDS011;2263;54.654;9.410;2023-05-02T13:14:26;3.03;;;1.93;;
4500;SDS011;2263;54.654;9.410;2023-05-02T13:16:54;3.53;;;3.10;;
4500;SDS011;2263;54.654;9.410;2023-05-02T13:19:21;6.40;;;2.47;;
4500;SDS011;2263;54.654;9.410;2023-05-02T13:21:49;2.80;;;2.23;;
4500;SDS011;2263;54.654;9.410;2023-05-02T13:24:16;8.17;;;2.03;;
4500;SDS011;2263;54.654;9.410;2023-05-02T13:26:44;4.97;;;2.73;;
4500;SDS011;2263;54.654;9.410;2023-05-02T13:29:12;5.30;;;2.57;;
4500;SDS011;2263;54.654;9.410;2023-05-02T13:31:39;4.70;;;2.33;;
4500;SDS011;2263;54.654;9.410;2023-05-02T13:34:07;2.67;;;2.30;;
4500;SDS011;2263;54.654;9.410;2023-05-02T13:36:34;4.33;;;2.27;;
4500;SDS011;2263;54.654;9.410;2023-05-02T13:39:06;2.77;;;2.07;;
4500;SDS011;2263;54.654;9.410;2023-05-02T13:41:34;7.30;;;1.87;;
4500;SDS011;2263;54.654;9.410;2023-05-02T13:44:03;2.80;;;2.60;;
4500;SDS011;2263;54.654;9.410;2023-05-02T13:46:30;4.20;;;2.30;;
4500;SDS011;2263;54.654;9.410;2023-05-02T13:49:02;2.00;;;1.80;;
4500;SDS011;2263;54.654;9.410;2023-05-02T13:51:33;3.43;;;2.00;;
4500;SDS011;2263;54.654;9.410;2023-05-02T13:54:01;2.77;;;2.47;;
4500;SDS011;2263;54.654;9.410;2023-05-02T13:56:28;2.40;;;1.80;;
4500;SDS011;2263;54.654;9.410;2023-05-02T13:58:56;6.20;;;2.57;;
4500;SDS011;2263;54.654;9.410;2023-05-02T14:01:24;3.23;;;2.83;;
4500;SDS011;2263;54.654;9.410;2023-05-02T14:03:54;4.33;;;3.00;;
4500;SDS011;2263;54.654;9.410;2023-05-02T14:06:22;4.70;;;2.53;;
4500;SDS011;2263;54.654;9.410;2023-05-02T14:08:50;4.40;;;2.63;;
4500;SDS011;2263;54.654;9.410;2023-05-02T14:11:17;5.40;;;3.60;;
4500;SDS011;2263;54.654;9.410;2023-05-02T14:13:45;4.37;;;3.10;;
4500;SDS011;2263;54.654;9.410;2023-05-02T14:16:12;4.27;;;3.83;;
4500;SDS011;2263;54.654;9.410;2023-05-02T14:18:40;3.33;;;2.67;;
4500;SDS011;2263;54.654;9.410;2023-05-02T14:21:08;5.07;;;2.60;;
4500;SDS011;2263;54.654;9.410;2023-05-02T14:23:35;3.13;;;2.50;;
4500;SDS011;2263;54.654;9.410;2023-05-02T14:26:03;3.43;;;2.13;;
4500;SDS011;2263;54.654;9.410;2023-05-02T14:28:31;6.10;;;3.80;;
4500;SDS011;2263;54.654;9.410;2023-05-02T14:30:59;8.33;;;2.50;;
4500;SDS011;2263;54.654;9.410;2023-05-02T14:33:26;5.00;;;3.53;;
4500;SDS011;2263;54.654;9.410;2023-05-02T14:35:54;5.30;;;2.60;;
4500;SDS011;2263;54.654;9.410;2023-05-02T14:38:21;7.27;;;2.37;;
4500;SDS011;2263;54.654;9.410;2023-05-02T14:40:49;5.10;;;3.13;;
4500;SDS011;2263;54.654;9.410;2023-05-02T14:43:17;6.23;;;2.40;;
4500;SDS011;2263;54.654;9.410;2023-05-02T14:45:44;3.90;;;1.90;;
4500;SDS011;2263;54.654;9.410;2023-05-02T14:48:12;4.20;;;2.00;;
4500;SDS011;2263;54.654;9.410;2023-05-02T14:50:39;4.40;;;1.67;;
4500;SDS011;2263;54.654;9.410;2023-05-02T14:53:07;3.93;;;1.77;;
4500;SDS011;2263;54.654;9.410;2023-05-02T14:55:38;1.67;;;1.50;;
4500;SDS011;2263;54.654;9.410;2023-05-02T14:58:06;5.07;;;2.20;;
4500;SDS011;2263;54.654;9.410;2023-05-02T15:00:35;2.20;;;1.63;;
4500;SDS011;2263;54.654;9.410;2023-05-02T15:03:06;1.90;;;1.70;;
4500;SDS011;2263;54.654;9.410;2023-05-02T15:05:35;4.60;;;1.70;;
4500;SDS011;2263;54.654;9.410;2023-05-02T15:08:03;2.47;;;1.50;;
4500;SDS011;2263;54.654;9.410;2023-05-02T15:10:35;3.00;;;1.63;;
4500;SDS011;2263;54.654;9.410;2023-05-02T15:13:05;1.73;;;1.63;;
4500;SDS011;2263;54.654;9.410;2023-05-02T15:15:34;5.00;;;2.13;;
4500;SDS011;2263;54.654;9.410;2023-05-02T15:18:03;4.77;;;1.73;;
4500;SDS011;2263;54.654;9.410;2023-05-02T15:20:30;8.07;;;1.87;;
4500;SDS011;2263;54.654;9.410;2023-05-02T15:22:58;5.63;;;1.70;;
4500;SDS011;2263;54.654;9.410;2023-05-02T15:25:29;3.17;;;1.67;;
4500;SDS011;2263;54.654;9.410;2023-05-02T15:27:57;2.50;;;1.10;;
4500;SDS011;2263;54.654;9.410;2023-05-02T15:30:25;2.57;;;1.20;;
4500;SDS011;2263;54.654;9.410;2023-05-02T15:32:52;4.30;;;1.83;;
4500;SDS011;2263;54.654;9.410;2023-05-02T15:35:20;3.43;;;2.17;;
4500;SDS011;2263;54.654;9.410;2023-05-02T15:37:47;6.17;;;2.40;;
4500;SDS011;2263;54.654;9.410;2023-05-02T15:40:15;2.77;;;1.63;;
4500;SDS011;2263;54.654;9.410;2023-05-02T15:42:43;4.77;;;2.03;;
4500;SDS011;2263;54.654;9.410;2023-05-02T15:45:10;3.93;;;2.60;;
4500;SDS011;2263;54.654;9.410;2023-05-02T15:47:41;8.70;;;2.20;;
4500;SDS011;2263;54.654;9.410;2023-05-02T15:50:09;3.70;;;1.73;;
4500;SDS011;2263;54.654;9.410;2023-05-02T15:52:37;3.43;;;1.73;;
4500;SDS011;2263;54.654;9.410;2023-05-02T15:55:05;2.17;;;1.90;;
4500;SDS011;2263;54.654;9.410;2023-05-02T15:57:32;6.63;;;2.07;;
4500;SDS011;2263;54.654;9.410;2023-05-02T16:00:00;3.93;;;2.00;;
4500;SDS011;2263;54.654;9.410;2023-05-02T16:02:28;2.30;;;1.40;;
4500;SDS011;2263;54.654;9.410;2023-05-02T16:04:55;3.30;;;1.83;;
4500;SDS011;2263;54.654;9.410;2023-05-02T16:07:23;2.90;;;1.73;;
4500;SDS011;2263;54.654;9.410;2023-05-02T16:09:51;4.87;;;2.27;;
4500;SDS011;2263;54.654;9.410;2023-05-02T16:12:18;2.27;;;1.47;;
4500;SDS011;2263;54.654;9.410;2023-05-02T16:14:46;4.20;;;1.70;;
4500;SDS011;2263;54.654;9.410;2023-05-02T16:17:13;6.63;;;3.07;;
4500;SDS011;2263;54.654;9.410;2023-05-02T16:19:41;3.13;;;2.00;;
4500;SDS011;2263;54.654;9.410;2023-05-02T16:22:09;6.30;;;2.17;;
4500;SDS011;2263;54.654;9.410;2023-05-02T16:24:37;3.10;;;2.03;;